sensor_id;sensor_type;location;lat;lon;timestamp;P1;durP1;ratioP1;P2;durP2;ratioP2
9880;SDS011;4979;51.014;6.678;2023-07-16T00:02:22;7.38;;;2.38;;
9880;SDS011;4979;51.014;6.678;2023-07-16T00:04:48;5.60;;;2.40;;
9880;SDS011;4979;51.014;6.678;2023-07-16T00:07:13;8.35;;;2.33;;
9880;SDS011;4979;51.014;6.678;2023-07-16T00:09:39;6.85;;;2.15;;
9880;SDS011;4979;51.014;6.678;2023-07-16T00:12:04;7.82;;;2.67;;
9880;SDS011;4979;51.014;6.678;2023-07-16T00:14:30;11.15;;;2.50;;
9880;SDS011;4979;51.014;6.678;2023-07-16T00:16:56;7.10;;;2.15;;
9880;SDS011;4979;51.014;6.678;2023-07-16T00:19:22;7.60;;;2.08;;
9880;SDS011;4979;51.014;6.678;2023-07-16T00:21:48;7.57;;;2.35;;
9880;SDS011;4979;51.014;6.678;2023-07-16T00:24:13;6.25;;;2.10;;
9880;SDS011;4979;51.014;6.678;2023-07-16T00:26:39;9.00;;;2.25;;
9880;SDS011;4979;51.014;6.678;2023-07-16T00:29:04;15.57;;;2.55;;
9880;SDS011;4979;51.014;6.678;2023-07-16T00:31:30;8.50;;;2.03;;
9880;SDS011;4979;51.014;6.678;2023-07-16T00:33:55;6.68;;;1.98;;
9880;SDS011;4979;51.014;6.678;2023-07-16T00:36:21;6.93;;;2.80;;
9880;SDS011;4979;51.014;6.678;2023-07-16T00:38:47;8.38;;;2.30;;
9880;SDS011;4979;51.014;6.678;2023-07-16T00:41:13;9.05;;;2.95;;
9880;SDS011;4979;51.014;6.678;2023-07-16T00:43:39;10.88;;;2.35;;
9880;SDS011;4979;51.014;6.678;2023-07-16T00:46:05;6.63;;;2.00;;
9880;SDS011;4979;51.014;6.678;2023-07-16T00:48:31;13.20;;;2.45;;
9880;SDS011;4979;51.014;6.678;2023-07-16T00:50:56;5.38;;;2.20;;
9880;SDS011;4979;51.014;6.678;2023-07-16T00:53:22;8.88;;;2.15;;
9880;SDS011;4979;51.014;6.678;2023-07-16T00:55:48;7.05;;;2.22;;
9880;SDS011;4979;51.014;6.678;2023-07-16T00:58:14;7.88;;;2.30;;
9880;SDS011;4979;51.014;6.678;2023-07-16T01:00:40;9.40;;;2.67;;
9880;SDS011;4979;51.014;6.678;2023-07-16T01:03:07;4.60;;;2.28;;
9880;SDS011;4979;51.014;6.678;2023-07-16T01:05:36;6.55;;;2.20;;
9880;SDS011;4979;51.014;6.678;2023-07-16T01:08:10;8.55;;;2.58;;
9880;SDS011;4979;51.014;6.678;2023-07-16T01:10:38;7.47;;;2.50;;
9880;SDS011;4979;51.014;6.678;2023-07-16T01:13:04;9.45;;;2.70;;
9880;SDS011;4979;51.014;6.678;2023-07-16T01:15:30;9.13;;;2.70;;
9880;SDS011;4979;51.014;6.678;2023-07-16T01:17:56;6.57;;;2.40;;
9880;SDS011;4979;51.014;6.678;2023-07-16T01:20:21;6.85;;;2.63;;
9880;SDS011;4979;51.014;6.678;2023-07-16T01:31:17;9.77;;;2.75;;
9880;SDS011;4979;51.014;6.678;2023-07-16T01:33:43;5.50;;;2.42;;
9880;SDS011;4979;51.014;6.678;2023-07-16T01:36:10;8.27;;;2.53;;
9880;SDS011;4979;51.014;6.678;2023-07-16T01:38:36;7.20;;;2.05;;
9880;SDS011;4979;51.014;6.678;2023-07-16T01:41:02;6.32;;;2.35;;
9880;SDS011;4979;51.014;6.678;2023-07-16T01:43:28;7.85;;;2.80;;
9880;SDS011;4979;51.014;6.678;2023-07-16T01:45:53;7.05;;;1.92;;
9880;SDS011;4979;51.014;6.678;2023-07-16T01:48:35;11.70;;;3.10;;
9880;SDS011;4979;51.014;6.678;2023-07-16T01:51:02;8.73;;;2.70;;
9880;SDS011;4979;51.014;6.678;2023-07-16T01:53:28;9.68;;;2.42;;
9880;SDS011;4979;51.014;6.678;2023-07-16T01:55:54;6.18;;;2.10;;
9880;SDS011;4979;51.014;6.678;2023-07-16T01:58:20;8.88;;;2.47;;
9880;SDS011;4979;51.014;6.678;2023-07-16T02:00:45;8.50;;;2.38;;
9880;SDS011;4979;51.014;6.678;2023-07-16T02:03:11;8.68;;;2.00;;
9880;SDS011;4979;51.014;6.678;2023-07-16T02:05:37;7.05;;;2.15;;
9880;SDS011;4979;51.014;6.678;2023-07-16T02:08:02;4.88;;;2.13;;
9880;SDS011;4979;51.014;6.678;2023-07-16T02:10:28;3.70;;;1.90;;
9880;SDS011;4979;51.014;6.678;2023-07-16T02:12:54;2.67;;;1.73;;
9880;SDS011;4979;51.014;6.678;2023-07-16T02:15:19;9.90;;;2.50;;
9880;SDS011;4979;51.014;6.678;2023-07-16T02:17:45;8.20;;;2.35;;
9880;SDS011;4979;51.014;6.678;2023-07-16T02:20:11;6.25;;;2.10;;
9880;SDS011;4979;51.014;6.678;2023-07-16T02:22:36;7.20;;;2.50;;
9880;SDS011;4979;51.014;6.678;2023-07-16T02:25:02;8.27;;;1.80;;
9880;SDS011;4979;51.014;6.678;2023-07-16T02:27:29;8.77;;;2.30;;
9880;SDS011;4979;51.014;6.678;2023-07-16T02:29:54;7.10;;;2.30;;
9880;SDS011;4979;51.014;6.678;2023-07-16T02:32:20;9.10;;;2.15;;
9880;SDS011;4979;51.014;6.678;2023-07-16T02:34:46;11.30;;;2.45;;
9880;SDS011;4979;51.014;6.678;2023-07-16T02:37:11;9.65;;;1.92;;
9880;SDS011;4979;51.014;6.678;2023-07-16T02:39:38;3.72;;;1.77;;
9880;SDS011;4979;51.014;6.678;2023-07-16T02:42:04;5.68;;;2.10;;
9880;SDS011;4979;51.014;6.678;2023-07-16T02:44:30;8.07;;;2.20;;
9880;SDS011;4979;51.014;6.678;2023-07-16T02:46:55;6.47;;;2.10;;
9880;SDS011;4979;51.014;6.678;2023-07-16T02:49:21;7.50;;;2.03;;
9880;SDS011;4979;51.014;6.678;2023-07-16T02:51:46;5.72;;;2.33;;
9880;SDS011;4979;51.014;6.678;2023-07-16T02:54:12;4.97;;;1.83;;
9880;SDS011;4979;51.014;6.678;2023-07-16T02:56:37;6.43;;;2.47;;
9880;SDS011;4979;51.014;6.678;2023-07-16T02:59:03;9.65;;;2.20;;
9880;SDS011;4979;51.014;6.678;2023-07-16T03:01:28;4.95;;;2.17;;
9880;SDS011;4979;51.014;6.678;2023-07-16T03:03:54;5.55;;;2.10;;
9880;SDS011;4979;51.014;6.678;2023-07-16T03:06:20;11.75;;;3.10;;
9880;SDS011;4979;51.014;6.678;2023-07-16T03:08:45;6.18;;;2.13;;
9880;SDS011;4979;51.014;6.678;2023-07-16T03:11:11;7.10;;;2.00;;
9880;SDS011;4979;51.014;6.678;2023-07-16T03:13:37;10.85;;;2.28;;
9880;SDS011;4979;51.014;6.678;2023-07-16T03:16:02;5.65;;;2.10;;
9880;SDS011;4979;51.014;6.678;2023-07-16T03:18:29;9.07;;;2.97;;
9880;SDS011;4979;51.014;6.678;2023-07-16T03:20:55;4.43;;;1.90;;
9880;SDS011;4979;51.014;6.678;2023-07-16T03:23:21;5.90;;;2.00;;
9880;SDS011;4979;51.014;6.678;2023-07-16T03:25:47;3.65;;;1.70;;
9880;SDS011;4979;51.014;6.678;2023-07-16T03:28:13;5.75;;;2.20;;
9880;SDS011;4979;51.014;6.678;2023-07-16T03:30:38;9.02;;;2.50;;
9880;SDS011;4979;51.014;6.678;2023-07-16T03:33:04;6.53;;;2.13;;
9880;SDS011;4979;51.014;6.678;2023-07-16T03:35:30;5.10;;;2.38;;
9880;SDS011;4979;51.014;6.678;2023-07-16T03:37:56;7.40;;;2.75;;
9880;SDS011;4979;51.014;6.678;2023-07-16T03:40:25;10.77;;;2.95;;
9880;SDS011;4979;51.014;6.678;2023-07-16T03:42:51;8.50;;;1.95;;
9880;SDS011;4979;51.014;6.678;2023-07-16T03:45:17;4.53;;;2.60;;
9880;SDS011;4979;51.014;6.678;2023-07-16T03:47:43;7.70;;;2.50;;
9880;SDS011;4979;51.014;6.678;2023-07-16T03:50:09;6.65;;;2.22;;
9880;SDS011;4979;51.014;6.678;2023-07-16T03:52:35;4.90;;;2.20;;
9880;SDS011;4979;51.014;6.678;2023-07-16T03:55:00;7.63;;;2.70;;
9880;SDS011;4979;51.014;6.678;2023-07-16T03:57:30;6.75;;;2.53;;
9880;SDS011;4979;51.014;6.678;2023-07-16T03:59:55;9.13;;;2.90;;
9880;SDS011;4979;51.014;6.678;2023-07-16T04:02:21;8.50;;;3.05;;
9880;SDS011;4979;51.014;6.678;2023-07-16T04:04:47;5.90;;;2.83;;
9880;SDS011;4979;51.014;6.678;2023-07-16T04:07:12;10.57;;;2.70;;
9880;SDS011;4979;51.014;6.678;2023-07-16T04:09:38;7.05;;;3.05;;
9880;SDS011;4979;51.014;6.678;2023-07-16T04:12:05;6.53;;;2.88;;
9880;SDS011;4979;51.014;6.678;2023-07-16T04:14:31;8.10;;;2.78;;
9880;SDS011;4979;51.014;6.678;2023-07-16T04:16:57;10.43;;;3.00;;
9880;SDS011;4979;51.014;6.678;2023-07-16T04:19:22;5.15;;;2.78;;
9880;SDS011;4979;51.014;6.678;2023-07-16T04:21:48;7.97;;;2.53;;
9880;SDS011;4979;51.014;6.678;2023-07-16T04:24:13;7.78;;;2.28;;
9880;SDS011;4979;51.014;6.678;2023-07-16T04:26:39;5.35;;;2.40;;
9880;SDS011;4979;51.014;6.678;2023-07-16T04:29:05;8.13;;;2.72;;
9880;SDS011;4979;51.014;6.678;2023-07-16T04:31:30;8.80;;;2.53;;
9880;SDS011;4979;51.014;6.678;2023-07-16T04:33:56;9.38;;;2.58;;
9880;SDS011;4979;51.014;6.678;2023-07-16T04:36:21;11.15;;;3.10;;
9880;SDS011;4979;51.014;6.678;2023-07-16T04:38:47;5.15;;;2.50;;
9880;SDS011;4979;51.014;6.678;2023-07-16T04:41:12;9.13;;;2.70;;
9880;SDS011;4979;51.014;6.678;2023-07-16T04:43:38;7.25;;;2.65;;
9880;SDS011;4979;51.014;6.678;2023-07-16T04:46:04;6.20;;;2.88;;
9880;SDS011;4979;51.014;6.678;2023-07-16T04:48:30;5.20;;;2.80;;
9880;SDS011;4979;51.014;6.678;2023-07-16T04:50:56;6.22;;;2.65;;
9880;SDS011;4979;51.014;6.678;2023-07-16T04:53:22;5.47;;;3.40;;
9880;SDS011;4979;51.014;6.678;2023-07-16T04:55:47;9.45;;;3.13;;
9880;SDS011;4979;51.014;6.678;2023-07-16T04:58:13;7.80;;;2.58;;
9880;SDS011;4979;51.014;6.678;2023-07-16T05:00:39;7.75;;;2.60;;
9880;SDS011;4979;51.014;6.678;2023-07-16T05:03:05;8.02;;;2.88;;
9880;SDS011;4979;51.014;6.678;2023-07-16T05:05:30;8.88;;;3.33;;
9880;SDS011;4979;51.014;6.678;2023-07-16T05:07:56;10.52;;;2.90;;
9880;SDS011;4979;51.014;6.678;2023-07-16T05:10:21;9.45;;;3.00;;
9880;SDS011;4979;51.014;6.678;2023-07-16T05:12:47;7.10;;;3.17;;
9880;SDS011;4979;51.014;6.678;2023-07-16T05:15:13;7.22;;;3.45;;
9880;SDS011;4979;51.014;6.678;2023-07-16T05:17:38;9.18;;;3.20;;
9880;SDS011;4979;51.014;6.678;2023-07-16T05:20:04;7.45;;;2.83;;
9880;SDS011;4979;51.014;6.678;2023-07-16T05:22:30;6.32;;;3.10;;
9880;SDS011;4979;51.014;6.678;2023-07-16T05:24:57;9.30;;;2.83;;
9880;SDS011;4979;51.014;6.678;2023-07-16T05:27:22;7.20;;;3.08;;
9880;SDS011;4979;51.014;6.678;2023-07-16T05:29:48;7.60;;;3.63;;
9880;SDS011;4979;51.014;6.678;2023-07-16T05:32:14;8.57;;;3.25;;
9880;SDS011;4979;51.014;6.678;2023-07-16T05:34:39;6.43;;;3.22;;
9880;SDS011;4979;51.014;6.678;2023-07-16T05:37:05;7.78;;;3.38;;
9880;SDS011;4979;51.014;6.678;2023-07-16T05:39:31;7.85;;;3.70;;
9880;SDS011;4979;51.014;6.678;2023-07-16T05:41:56;7.53;;;3.67;;
9880;SDS011;4979;51.014;6.678;2023-07-16T05:44:22;7.50;;;3.50;;
9880;SDS011;4979;51.014;6.678;2023-07-16T05:46:48;8.68;;;3.85;;
9880;SDS011;4979;51.014;6.678;2023-07-16T05:49:13;9.63;;;4.05;;
9880;SDS011;4979;51.014;6.678;2023-07-16T05:51:39;7.72;;;3.85;;
9880;SDS011;4979;51.014;6.678;2023-07-16T05:54:04;6.93;;;3.53;;
9880;SDS011;4979;51.014;6.678;2023-07-16T05:56:31;8.27;;;3.97;;
9880;SDS011;4979;51.014;6.678;2023-07-16T05:58:57;9.98;;;4.30;;
9880;SDS011;4979;51.014;6.678;2023-07-16T06:01:22;12.20;;;4.13;;
9880;SDS011;4979;51.014;6.678;2023-07-16T06:03:48;10.35;;;4.30;;
9880;SDS011;4979;51.014;6.678;2023-07-16T06:06:13;11.15;;;4.43;;
9880;SDS011;4979;51.014;6.678;2023-07-16T06:08:39;6.82;;;3.90;;
9880;SDS011;4979;51.014;6.678;2023-07-16T06:11:04;9.48;;;4.30;;
9880;SDS011;4979;51.014;6.678;2023-07-16T06:13:30;9.80;;;3.80;;
9880;SDS011;4979;51.014;6.678;2023-07-16T06:15:56;7.90;;;4.35;;
9880;SDS011;4979;51.014;6.678;2023-07-16T06:18:22;9.15;;;4.45;;
9880;SDS011;4979;51.014;6.678;2023-07-16T06:20:47;9.32;;;4.38;;
9880;SDS011;4979;51.014;6.678;2023-07-16T06:23:13;11.43;;;4.97;;
9880;SDS011;4979;51.014;6.678;2023-07-16T06:25:41;11.23;;;4.45;;
9880;SDS011;4979;51.014;6.678;2023-07-16T06:28:09;9.10;;;4.28;;
9880;SDS011;4979;51.014;6.678;2023-07-16T06:30:35;7.30;;;4.00;;
9880;SDS011;4979;51.014;6.678;2023-07-16T06:33:01;8.65;;;4.38;;
9880;SDS011;4979;51.014;6.678;2023-07-16T06:35:27;8.52;;;4.63;;
9880;SDS011;4979;51.014;6.678;2023-07-16T06:37:53;7.95;;;4.60;;
9880;SDS011;4979;51.014;6.678;2023-07-16T06:40:18;10.27;;;4.70;;
9880;SDS011;4979;51.014;6.678;2023-07-16T06:42:44;8.60;;;4.35;;
9880;SDS011;4979;51.014;6.678;2023-07-16T06:45:09;9.60;;;4.60;;
9880;SDS011;4979;51.014;6.678;2023-07-16T06:47:35;12.77;;;4.95;;
9880;SDS011;4979;51.014;6.678;2023-07-16T06:50:01;12.02;;;4.35;;
9880;SDS011;4979;51.014;6.678;2023-07-16T06:52:27;5.88;;;4.25;;
9880;SDS011;4979;51.014;6.678;2023-07-16T06:54:53;5.50;;;4.53;;
9880;SDS011;4979;51.014;6.678;2023-07-16T06:57:20;8.93;;;4.63;;
9880;SDS011;4979;51.014;6.678;2023-07-16T06:59:46;9.32;;;4.95;;
9880;SDS011;4979;51.014;6.678;2023-07-16T07:02:11;9.70;;;5.13;;
9880;SDS011;4979;51.014;6.678;2023-07-16T07:04:37;7.93;;;5.00;;
9880;SDS011;4979;51.014;6.678;2023-07-16T07:07:03;9.55;;;4.93;;
9880;SDS011;4979;51.014;6.678;2023-07-16T07:09:29;8.70;;;4.18;;
9880;SDS011;4979;51.014;6.678;2023-07-16T07:11:54;9.98;;;4.57;;
9880;SDS011;4979;51.014;6.678;2023-07-16T07:14:20;11.23;;;4.50;;
9880;SDS011;4979;51.014;6.678;2023-07-16T07:16:45;7.95;;;4.07;;
9880;SDS011;4979;51.014;6.678;2023-07-16T07:19:11;9.18;;;4.90;;
9880;SDS011;4979;51.014;6.678;2023-07-16T07:21:36;6.78;;;4.75;;
9880;SDS011;4979;51.014;6.678;2023-07-16T07:24:02;10.73;;;4.30;;
9880;SDS011;4979;51.014;6.678;2023-07-16T07:26:28;9.10;;;4.97;;
9880;SDS011;4979;51.014;6.678;2023-07-16T07:28:53;14.20;;;5.47;;
9880;SDS011;4979;51.014;6.678;2023-07-16T07:31:19;9.55;;;4.60;;
9880;SDS011;4979;51.014;6.678;2023-07-16T07:33:44;6.05;;;3.58;;
9880;SDS011;4979;51.014;6.678;2023-07-16T07:36:10;9.55;;;4.70;;
9880;SDS011;4979;51.014;6.678;2023-07-16T07:38:36;6.80;;;4.10;;
9880;SDS011;4979;51.014;6.678;2023-07-16T07:41:01;7.32;;;5.25;;
9880;SDS011;4979;51.014;6.678;2023-07-16T07:43:27;7.28;;;4.65;;
9880;SDS011;4979;51.014;6.678;2023-07-16T07:45:52;10.25;;;4.95;;
9880;SDS011;4979;51.014;6.678;2023-07-16T07:48:18;8.43;;;4.10;;
9880;SDS011;4979;51.014;6.678;2023-07-16T07:50:45;13.00;;;5.43;;
9880;SDS011;4979;51.014;6.678;2023-07-16T07:53:11;8.32;;;4.47;;
9880;SDS011;4979;51.014;6.678;2023-07-16T07:55:37;15.10;;;4.47;;
9880;SDS011;4979;51.014;6.678;2023-07-16T07:58:02;8.80;;;4.25;;
9880;SDS011;4979;51.014;6.678;2023-07-16T08:00:28;11.77;;;4.45;;
9880;SDS011;4979;51.014;6.678;2023-07-16T08:02:53;6.30;;;3.55;;
9880;SDS011;4979;51.014;6.678;2023-07-16T08:05:20;7.43;;;4.32;;
9880;SDS011;4979;51.014;6.678;2023-07-16T08:07:46;11.98;;;4.43;;
9880;SDS011;4979;51.014;6.678;2023-07-16T08:10:12;9.23;;;4.50;;
9880;SDS011;4979;51.014;6.678;2023-07-16T08:12:38;9.70;;;4.60;;
9880;SDS011;4979;51.014;6.678;2023-07-16T08:15:03;8.80;;;4.13;;
9880;SDS011;4979;51.014;6.678;2023-07-16T08:17:30;7.13;;;3.95;;
9880;SDS011;4979;51.014;6.678;2023-07-16T08:19:56;9.02;;;4.13;;
9880;SDS011;4979;51.014;6.678;2023-07-16T08:22:21;7.95;;;4.70;;
9880;SDS011;4979;51.014;6.678;2023-07-16T08:24:48;7.72;;;3.80;;
9880;SDS011;4979;51.014;6.678;2023-07-16T08:27:15;8.50;;;4.00;;
9880;SDS011;4979;51.014;6.678;2023-07-16T08:29:41;9.88;;;3.20;;
9880;SDS011;4979;51.014;6.678;2023-07-16T08:32:07;6.13;;;3.80;;
9880;SDS011;4979;51.014;6.678;2023-07-16T08:34:33;5.57;;;3.03;;
9880;SDS011;4979;51.014;6.678;2023-07-16T08:36:58;8.05;;;3.97;;
9880;SDS011;4979;51.014;6.678;2023-07-16T08:39:24;6.72;;;3.40;;
9880;SDS011;4979;51.014;6.678;2023-07-16T08:41:49;7.13;;;3.70;;
9880;SDS011;4979;51.014;6.678;2023-07-16T08:44:15;6.57;;;3.80;;
9880;SDS011;4979;51.014;6.678;2023-07-16T08:46:41;13.10;;;4.20;;
9880;SDS011;4979;51.014;6.678;2023-07-16T08:49:07;12.80;;;3.60;;
9880;SDS011;4979;51.014;6.678;2023-07-16T08:51:32;11.00;;;4.25;;
9880;SDS011;4979;51.014;6.678;2023-07-16T08:54:00;10.98;;;3.63;;
9880;SDS011;4979;51.014;6.678;2023-07-16T08:56:26;7.10;;;3.40;;
9880;SDS011;4979;51.014;6.678;2023-07-16T08:58:53;6.95;;;3.67;;
9880;SDS011;4979;51.014;6.678;2023-07-16T09:01:23;8.57;;;3.38;;
9880;SDS011;4979;51.014;6.678;2023-07-16T09:03:49;10.10;;;3.60;;
9880;SDS011;4979;51.014;6.678;2023-07-16T09:06:14;6.60;;;3.65;;
9880;SDS011;4979;51.014;6.678;2023-07-16T09:08:41;7.25;;;3.50;;
9880;SDS011;4979;51.014;6.678;2023-07-16T09:11:10;6.32;;;2.97;;
9880;SDS011;4979;51.014;6.678;2023-07-16T09:13:36;5.43;;;3.33;;
9880;SDS011;4979;51.014;6.678;2023-07-16T09:16:02;5.50;;;3.40;;
9880;SDS011;4979;51.014;6.678;2023-07-16T09:18:28;5.47;;;3.42;;
9880;SDS011;4979;51.014;6.678;2023-07-16T09:20:54;6.28;;;3.78;;
9880;SDS011;4979;51.014;6.678;2023-07-16T09:23:26;5.60;;;3.25;;
9880;SDS011;4979;51.014;6.678;2023-07-16T09:25:53;5.00;;;3.65;;
9880;SDS011;4979;51.014;6.678;2023-07-16T09:28:19;4.55;;;2.92;;
9880;SDS011;4979;51.014;6.678;2023-07-16T09:30:46;4.20;;;2.88;;
9880;SDS011;4979;51.014;6.678;2023-07-16T09:35:41;6.93;;;3.40;;
9880;SDS011;4979;51.014;6.678;2023-07-16T09:38:08;7.68;;;3.90;;
9880;SDS011;4979;51.014;6.678;2023-07-16T09:40:35;7.18;;;3.40;;
9880;SDS011;4979;51.014;6.678;2023-07-16T09:43:04;7.72;;;4.03;;
9880;SDS011;4979;51.014;6.678;2023-07-16T09:45:31;6.40;;;3.22;;
9880;SDS011;4979;51.014;6.678;2023-07-16T09:47:57;4.95;;;3.38;;
9880;SDS011;4979;51.014;6.678;2023-07-16T09:50:27;4.40;;;3.10;;
9880;SDS011;4979;51.014;6.678;2023-07-16T09:52:55;6.90;;;3.38;;
9880;SDS011;4979;51.014;6.678;2023-07-16T09:55:22;4.30;;;3.40;;
9880;SDS011;4979;51.014;6.678;2023-07-16T09:57:48;5.07;;;3.17;;
9880;SDS011;4979;51.014;6.678;2023-07-16T10:00:17;4.57;;;2.92;;
9880;SDS011;4979;51.014;6.678;2023-07-16T10:02:45;5.25;;;3.50;;
9880;SDS011;4979;51.014;6.678;2023-07-16T10:05:14;5.55;;;3.10;;
9880;SDS011;4979;51.014;6.678;2023-07-16T10:07:50;3.92;;;2.70;;
9880;SDS011;4979;51.014;6.678;2023-07-16T10:10:18;4.80;;;3.05;;
9880;SDS011;4979;51.014;6.678;2023-07-16T10:12:54;6.45;;;3.72;;
9880;SDS011;4979;51.014;6.678;2023-07-16T10:15:24;4.00;;;3.30;;
9880;SDS011;4979;51.014;6.678;2023-07-16T10:17:52;6.57;;;3.05;;
9880;SDS011;4979;51.014;6.678;2023-07-16T10:20:18;6.00;;;2.92;;
9880;SDS011;4979;51.014;6.678;2023-07-16T10:23:13;12.02;;;3.75;;
9880;SDS011;4979;51.014;6.678;2023-07-16T10:25:40;7.60;;;3.20;;
9880;SDS011;4979;51.014;6.678;2023-07-16T10:28:06;5.32;;;3.28;;
9880;SDS011;4979;51.014;6.678;2023-07-16T10:30:32;7.03;;;3.40;;
9880;SDS011;4979;51.014;6.678;2023-07-16T10:33:02;4.82;;;3.30;;
9880;SDS011;4979;51.014;6.678;2023-07-16T10:35:28;6.43;;;3.08;;
9880;SDS011;4979;51.014;6.678;2023-07-16T10:37:54;6.28;;;3.45;;
9880;SDS011;4979;51.014;6.678;2023-07-16T10:40:19;9.57;;;3.17;;
9880;SDS011;4979;51.014;6.678;2023-07-16T10:42:45;4.80;;;2.53;;
9880;SDS011;4979;51.014;6.678;2023-07-16T10:45:13;12.82;;;3.20;;
9880;SDS011;4979;51.014;6.678;2023-07-16T10:47:50;7.05;;;3.63;;
9880;SDS011;4979;51.014;6.678;2023-07-16T10:50:18;12.27;;;3.70;;
9880;SDS011;4979;51.014;6.678;2023-07-16T10:52:46;7.28;;;3.42;;
9880;SDS011;4979;51.014;6.678;2023-07-16T10:55:21;5.88;;;3.08;;
9880;SDS011;4979;51.014;6.678;2023-07-16T10:57:48;6.03;;;2.53;;
9880;SDS011;4979;51.014;6.678;2023-07-16T11:00:15;4.05;;;3.13;;
9880;SDS011;4979;51.014;6.678;2023-07-16T11:02:41;6.50;;;3.22;;
9880;SDS011;4979;51.014;6.678;2023-07-16T11:05:11;4.43;;;3.13;;
9880;SDS011;4979;51.014;6.678;2023-07-16T11:07:44;5.95;;;3.47;;
9880;SDS011;4979;51.014;6.678;2023-07-16T11:10:17;11.35;;;3.58;;
9880;SDS011;4979;51.014;6.678;2023-07-16T11:12:43;10.90;;;3.78;;
9880;SDS011;4979;51.014;6.678;2023-07-16T11:15:09;15.13;;;3.45;;
9880;SDS011;4979;51.014;6.678;2023-07-16T11:17:36;9.57;;;3.20;;
9880;SDS011;4979;51.014;6.678;2023-07-16T11:20:04;4.70;;;3.30;;
9880;SDS011;4979;51.014;6.678;2023-07-16T11:22:39;3.95;;;3.00;;
9880;SDS011;4979;51.014;6.678;2023-07-16T11:25:14;8.15;;;3.17;;
9880;SDS011;4979;51.014;6.678;2023-07-16T11:27:41;8.70;;;3.58;;
9880;SDS011;4979;51.014;6.678;2023-07-16T11:30:07;3.95;;;3.17;;
9880;SDS011;4979;51.014;6.678;2023-07-16T11:32:34;4.85;;;3.30;;
9880;SDS011;4979;51.014;6.678;2023-07-16T11:35:01;2.95;;;2.45;;
9880;SDS011;4979;51.014;6.678;2023-07-16T11:37:29;3.78;;;2.95;;
9880;SDS011;4979;51.014;6.678;2023-07-16T11:39:56;4.15;;;2.88;;
9880;SDS011;4979;51.014;6.678;2023-07-16T11:42:28;7.28;;;3.00;;
9880;SDS011;4979;51.014;6.678;2023-07-16T11:44:55;7.15;;;3.38;;
9880;SDS011;4979;51.014;6.678;2023-07-16T11:47:22;6.90;;;3.03;;
9880;SDS011;4979;51.014;6.678;2023-07-16T11:49:48;6.47;;;3.10;;
9880;SDS011;4979;51.014;6.678;2023-07-16T11:52:14;4.88;;;2.65;;
9880;SDS011;4979;51.014;6.678;2023-07-16T11:54:43;6.05;;;3.33;;
9880;SDS011;4979;51.014;6.678;2023-07-16T11:57:09;5.00;;;3.40;;
9880;SDS011;4979;51.014;6.678;2023-07-16T11:59:34;6.72;;;3.45;;
9880;SDS011;4979;51.014;6.678;2023-07-16T12:02:00;5.95;;;3.20;;
9880;SDS011;4979;51.014;6.678;2023-07-16T12:04:25;3.58;;;2.97;;
9880;SDS011;4979;51.014;6.678;2023-07-16T12:06:51;5.85;;;3.45;;
9880;SDS011;4979;51.014;6.678;2023-07-16T12:09:16;4.45;;;3.15;;
9880;SDS011;4979;51.014;6.678;2023-07-16T12:11:42;6.10;;;3.75;;
9880;SDS011;4979;51.014;6.678;2023-07-16T12:14:08;6.40;;;3.67;;
9880;SDS011;4979;51.014;6.678;2023-07-16T12:16:33;4.25;;;3.28;;
9880;SDS011;4979;51.014;6.678;2023-07-16T12:18:59;6.25;;;3.05;;
9880;SDS011;4979;51.014;6.678;2023-07-16T12:21:25;6.57;;;3.47;;
9880;SDS011;4979;51.014;6.678;2023-07-16T12:23:50;5.32;;;3.47;;
9880;SDS011;4979;51.014;6.678;2023-07-16T12:26:16;3.67;;;3.35;;
9880;SDS011;4979;51.014;6.678;2023-07-16T12:28:41;3.47;;;3.15;;
9880;SDS011;4979;51.014;6.678;2023-07-16T12:31:07;4.68;;;3.20;;
9880;SDS011;4979;51.014;6.678;2023-07-16T12:33:32;4.25;;;3.28;;
9880;SDS011;4979;51.014;6.678;2023-07-16T12:35:58;7.55;;;3.50;;
9880;SDS011;4979;51.014;6.678;2023-07-16T12:38:23;5.88;;;3.20;;
9880;SDS011;4979;51.014;6.678;2023-07-16T12:40:49;5.97;;;3.60;;
9880;SDS011;4979;51.014;6.678;2023-07-16T12:43:14;6.05;;;3.30;;
9880;SDS011;4979;51.014;6.678;2023-07-16T12:45:40;4.47;;;3.50;;
9880;SDS011;4979;51.014;6.678;2023-07-16T12:48:06;4.28;;;3.03;;
9880;SDS011;4979;51.014;6.678;2023-07-16T12:50:31;4.85;;;3.15;;
9880;SDS011;4979;51.014;6.678;2023-07-16T12:52:57;6.43;;;3.10;;
9880;SDS011;4979;51.014;6.678;2023-07-16T12:55:22;5.07;;;2.78;;
9880;SDS011;4979;51.014;6.678;2023-07-16T12:57:48;7.32;;;3.53;;
9880;SDS011;4979;51.014;6.678;2023-07-16T13:00:14;4.43;;;3.20;;
9880;SDS011;4979;51.014;6.678;2023-07-16T13:02:40;4.10;;;2.85;;
9880;SDS011;4979;51.014;6.678;2023-07-16T13:05:05;5.68;;;3.42;;
9880;SDS011;4979;51.014;6.678;2023-07-16T13:07:31;3.67;;;2.80;;
9880;SDS011;4979;51.014;6.678;2023-07-16T13:09:57;7.57;;;3.28;;
9880;SDS011;4979;51.014;6.678;2023-07-16T13:12:22;4.68;;;3.17;;
9880;SDS011;4979;51.014;6.678;2023-07-16T13:14:48;6.53;;;3.08;;
9880;SDS011;4979;51.014;6.678;2023-07-16T13:17:13;3.92;;;2.90;;
9880;SDS011;4979;51.014;6.678;2023-07-16T13:19:41;4.97;;;2.92;;
9880;SDS011;4979;51.014;6.678;2023-07-16T13:22:07;5.50;;;3.10;;
9880;SDS011;4979;51.014;6.678;2023-07-16T13:24:32;3.67;;;2.42;;
9880;SDS011;4979;51.014;6.678;2023-07-16T13:26:58;4.80;;;3.15;;
9880;SDS011;4979;51.014;6.678;2023-07-16T13:29:23;5.22;;;3.05;;
9880;SDS011;4979;51.014;6.678;2023-07-16T13:31:49;4.22;;;2.97;;
9880;SDS011;4979;51.014;6.678;2023-07-16T13:34:14;4.53;;;2.83;;
9880;SDS011;4979;51.014;6.678;2023-07-16T13:36:40;4.47;;;3.00;;
9880;SDS011;4979;51.014;6.678;2023-07-16T13:39:05;7.32;;;2.70;;
9880;SDS011;4979;51.014;6.678;2023-07-16T13:41:31;3.95;;;2.38;;
9880;SDS011;4979;51.014;6.678;2023-07-16T13:43:57;3.92;;;2.40;;
9880;SDS011;4979;51.014;6.678;2023-07-16T13:46:23;4.43;;;2.60;;
9880;SDS011;4979;51.014;6.678;2023-07-16T13:48:48;4.53;;;2.90;;
9880;SDS011;4979;51.014;6.678;2023-07-16T13:51:14;3.85;;;2.80;;
9880;SDS011;4979;51.014;6.678;2023-07-16T13:53:40;9.23;;;2.95;;
9880;SDS011;4979;51.014;6.678;2023-07-16T13:56:06;8.48;;;3.13;;
9880;SDS011;4979;51.014;6.678;2023-07-16T13:58:33;5.60;;;3.13;;
9880;SDS011;4979;51.014;6.678;2023-07-16T14:00:58;3.30;;;2.60;;
9880;SDS011;4979;51.014;6.678;2023-07-16T14:03:24;4.88;;;2.63;;
9880;SDS011;4979;51.014;6.678;2023-07-16T14:05:49;4.55;;;2.78;;
9880;SDS011;4979;51.014;6.678;2023-07-16T14:08:15;4.43;;;3.10;;
9880;SDS011;4979;51.014;6.678;2023-07-16T14:10:41;4.45;;;2.95;;
9880;SDS011;4979;51.014;6.678;2023-07-16T14:13:06;2.70;;;2.25;;
9880;SDS011;4979;51.014;6.678;2023-07-16T14:15:32;12.07;;;2.78;;
9880;SDS011;4979;51.014;6.678;2023-07-16T14:17:57;7.15;;;2.95;;
9880;SDS011;4979;51.014;6.678;2023-07-16T14:20:23;3.75;;;2.92;;
9880;SDS011;4979;51.014;6.678;2023-07-16T14:22:48;4.50;;;2.70;;
9880;SDS011;4979;51.014;6.678;2023-07-16T14:25:14;4.65;;;3.05;;
9880;SDS011;4979;51.014;6.678;2023-07-16T14:27:39;3.20;;;2.70;;
9880;SDS011;4979;51.014;6.678;2023-07-16T14:30:05;3.92;;;2.80;;
9880;SDS011;4979;51.014;6.678;2023-07-16T14:32:32;4.85;;;3.17;;
9880;SDS011;4979;51.014;6.678;2023-07-16T14:34:58;2.95;;;2.63;;
9880;SDS011;4979;51.014;6.678;2023-07-16T14:37:25;4.57;;;2.83;;
9880;SDS011;4979;51.014;6.678;2023-07-16T14:39:50;4.78;;;2.78;;
9880;SDS011;4979;51.014;6.678;2023-07-16T14:42:16;4.40;;;2.60;;
9880;SDS011;4979;51.014;6.678;2023-07-16T14:44:41;3.25;;;2.58;;
9880;SDS011;4979;51.014;6.678;2023-07-16T14:47:07;3.65;;;2.95;;
9880;SDS011;4979;51.014;6.678;2023-07-16T14:49:32;4.63;;;2.55;;
9880;SDS011;4979;51.014;6.678;2023-07-16T14:51:58;9.13;;;3.08;;
9880;SDS011;4979;51.014;6.678;2023-07-16T14:54:23;3.42;;;2.78;;
9880;SDS011;4979;51.014;6.678;2023-07-16T14:56:49;4.60;;;2.65;;
9880;SDS011;4979;51.014;6.678;2023-07-16T14:59:14;4.05;;;2.78;;
9880;SDS011;4979;51.014;6.678;2023-07-16T15:01:40;5.68;;;3.33;;
9880;SDS011;4979;51.014;6.678;2023-07-16T15:04:06;3.88;;;2.80;;
9880;SDS011;4979;51.014;6.678;2023-07-16T15:06:31;5.25;;;3.13;;
9880;SDS011;4979;51.014;6.678;2023-07-16T15:08:57;4.65;;;2.85;;
9880;SDS011;4979;51.014;6.678;2023-07-16T15:11:22;3.80;;;2.88;;
9880;SDS011;4979;51.014;6.678;2023-07-16T15:13:48;3.53;;;2.72;;
9880;SDS011;4979;51.014;6.678;2023-07-16T15:16:14;5.50;;;3.08;;
9880;SDS011;4979;51.014;6.678;2023-07-16T15:18:39;5.85;;;3.38;;
9880;SDS011;4979;51.014;6.678;2023-07-16T15:21:05;6.70;;;3.10;;